< < Back
Terminal Aerodrome Forecast


Current Version              Previous Versions:   1  2  3  4  5  6  7  8  9  

Terminal Aerodrome Forecast

850
FTUS42 KGSP 220537
TAFAVL
TAF
KAVL 220537Z 2206/2306 13004KT P6SM -DZ SCT008 OVC012
      TEMPO 2206/2209 5SM -DZ BR OVC008
     FM220900 10004KT 3SM -DZ BR OVC006
     FM221300 11004KT 5SM BR OVC008
     FM221900 12005KT P6SM OVC012
     FM230100 12004KT 5SM -DZ BR OVC007=



Latest METAR

934
SAUS70 KWBC 220900 RRM
MTRAVL
METAR KAVL 220854Z AUTO 00000KT 2 1/2SM BR OVC003 04/03 A3008 RMK AO2
RAB11E20 SLP186 P0000 60000 T00390033 58019


USA.gov is the U.S. government's official web portal to all federal, state and local government web resources and services.